createdAt,value
2023-12-23T00:00:48.993Z,924.00
2023-12-23T00:01:49.028Z,924.00
2023-12-23T00:02:48.937Z,924.00
2023-12-23T00:03:49.000Z,923.00
2023-12-23T00:04:49.002Z,922.00
2023-12-23T00:05:49.070Z,921.00
2023-12-23T00:06:48.980Z,920.00
2023-12-23T00:07:49.246Z,918.00
2023-12-23T00:08:48.973Z,919.00
2023-12-23T00:09:49.010Z,917.00
2023-12-23T00:10:49.046Z,916.00
2023-12-23T00:11:49.145Z,915.00
2023-12-23T00:12:49.049Z,912.00
2023-12-23T00:13:49.073Z,911.00
2023-12-23T00:14:49.056Z,910.00
2023-12-23T00:15:49.077Z,910.00
2023-12-23T00:16:49.079Z,912.00
2023-12-23T00:17:50.757Z,907.00
2023-12-23T00:18:49.120Z,904.00
2023-12-23T00:19:49.171Z,904.00
2023-12-23T00:20:49.146Z,902.00
2023-12-23T00:21:49.105Z,900.00
2023-12-23T00:22:49.104Z,900.00
2023-12-23T00:23:49.110Z,903.00
2023-12-23T00:24:49.127Z,903.00
2023-12-23T00:25:49.169Z,901.00
2023-12-23T00:26:49.133Z,898.00
2023-12-23T00:27:49.413Z,897.00
2023-12-23T00:28:49.174Z,894.00
2023-12-23T00:29:49.138Z,894.00
2023-12-23T00:30:49.185Z,892.00
2023-12-23T00:31:49.214Z,894.00
2023-12-23T00:32:49.242Z,896.00
2023-12-23T00:33:49.279Z,894.00
2023-12-23T00:34:49.202Z,893.00
2023-12-23T00:35:49.189Z,894.00
2023-12-23T00:36:49.206Z,894.00
2023-12-23T00:37:49.479Z,895.00
2023-12-23T00:38:49.205Z,896.00
2023-12-23T00:39:49.206Z,896.00
2023-12-23T00:40:49.289Z,892.00
2023-12-23T00:41:49.225Z,890.00
2023-12-23T00:42:49.232Z,887.00
2023-12-23T00:43:49.270Z,884.00
2023-12-23T00:44:49.251Z,883.00
2023-12-23T00:45:49.257Z,885.00
2023-12-23T00:46:49.384Z,884.00
2023-12-23T00:47:49.474Z,883.00
2023-12-23T00:48:49.377Z,882.00
2023-12-23T00:49:49.299Z,880.00
2023-12-23T00:50:49.272Z,878.00
2023-12-23T00:51:49.285Z,875.00
2023-12-23T00:52:49.304Z,875.00
2023-12-23T00:53:49.432Z,877.00
2023-12-23T00:54:49.307Z,879.00
2023-12-23T00:55:49.333Z,884.00
2023-12-23T00:56:49.304Z,885.00
2023-12-23T00:57:49.580Z,885.00
2023-12-23T00:58:49.376Z,888.00
2023-12-23T00:59:49.327Z,888.00
2023-12-23T01:00:49.380Z,884.00
2023-12-23T01:01:49.399Z,881.00
2023-12-23T01:02:49.367Z,877.00
2023-12-23T01:03:49.420Z,877.00
2023-12-23T01:04:49.414Z,876.00
2023-12-23T01:05:49.427Z,876.00
2023-12-23T01:06:49.431Z,878.00
2023-12-23T01:07:49.666Z,877.00
2023-12-23T01:08:49.421Z,877.00
2023-12-23T01:09:49.456Z,880.00
2023-12-23T01:10:49.511Z,881.00
2023-12-23T01:11:49.541Z,881.00
2023-12-23T01:12:49.569Z,879.00
2023-12-23T01:13:49.636Z,882.00
2023-12-23T01:14:49.659Z,879.00
2023-12-23T01:15:49.715Z,877.00
2023-12-23T01:16:49.810Z,875.00
2023-12-23T01:17:50.184Z,874.00
2023-12-23T01:18:49.912Z,874.00
2023-12-23T01:19:49.838Z,873.00
2023-12-23T01:20:49.831Z,873.00
2023-12-23T01:21:49.838Z,872.00
2023-12-23T01:22:49.856Z,869.00
2023-12-23T01:23:49.877Z,868.00
2023-12-23T01:24:49.891Z,869.00
2023-12-23T01:25:49.902Z,867.00
2023-12-23T01:26:49.910Z,866.00
2023-12-23T01:27:50.206Z,862.00
2023-12-23T01:28:49.984Z,860.00
2023-12-23T01:29:49.954Z,859.00
2023-12-23T01:30:50.030Z,860.00
2023-12-23T01:31:50.004Z,860.00
2023-12-23T01:32:50.098Z,859.00
2023-12-23T01:33:50.159Z,859.00
2023-12-23T01:34:50.146Z,859.00
2023-12-23T01:35:50.039Z,861.00
2023-12-23T01:36:50.041Z,860.00
2023-12-23T01:37:50.343Z,861.00
2023-12-23T01:38:50.067Z,861.00
2023-12-23T01:39:50.069Z,858.00
2023-12-23T01:40:50.142Z,854.00
2023-12-23T01:41:50.081Z,853.00
2023-12-23T01:42:50.098Z,850.00
2023-12-23T01:43:50.182Z,847.00
2023-12-23T01:44:50.111Z,845.00
2023-12-23T01:45:50.142Z,843.00
2023-12-23T01:46:50.180Z,844.00
2023-12-23T01:47:50.611Z,845.00
2023-12-23T01:48:50.216Z,846.00
2023-12-23T01:49:50.219Z,848.00
2023-12-23T01:50:50.217Z,847.00
2023-12-23T01:51:50.211Z,842.00
2023-12-23T01:52:50.310Z,839.00
2023-12-23T01:53:50.266Z,839.00
2023-12-23T01:54:50.258Z,837.00
2023-12-23T01:55:50.292Z,834.00
2023-12-23T01:56:50.290Z,836.00
2023-12-23T01:57:50.499Z,834.00
2023-12-23T01:58:50.320Z,835.00
2023-12-23T01:59:50.327Z,834.00
2023-12-23T02:00:50.371Z,834.00
2023-12-23T02:01:50.484Z,835.00
2023-12-23T02:02:50.765Z,832.00
2023-12-23T02:03:50.453Z,833.00
2023-12-23T02:04:50.447Z,830.00
2023-12-23T02:05:50.442Z,829.00
2023-12-23T02:06:50.429Z,825.00
2023-12-23T02:07:50.449Z,825.00
2023-12-23T02:08:50.459Z,825.00
2023-12-23T02:09:50.471Z,826.00
2023-12-23T02:10:50.564Z,826.00
2023-12-23T02:11:50.524Z,823.00
2023-12-23T02:12:58.561Z,823.00
2023-12-23T02:13:51.593Z,822.00
2023-12-23T02:14:50.582Z,821.00
2023-12-23T02:15:50.552Z,821.00
2023-12-23T02:16:50.551Z,819.00
2023-12-23T02:17:50.581Z,819.00
2023-12-23T02:18:50.631Z,818.00
2023-12-23T02:19:50.558Z,817.00
2023-12-23T02:20:50.572Z,816.00
2023-12-23T02:21:50.559Z,816.00
2023-12-23T02:22:50.740Z,814.00
2023-12-23T02:23:51.783Z,813.00
2023-12-23T02:24:50.547Z,813.00
2023-12-23T02:25:50.592Z,814.00
2023-12-23T02:26:50.560Z,810.00
2023-12-23T02:27:50.574Z,808.00
2023-12-23T02:28:50.612Z,807.00
2023-12-23T02:29:50.550Z,806.00
2023-12-23T02:30:50.588Z,808.00
2023-12-23T02:31:50.614Z,807.00
2023-12-23T02:32:50.987Z,811.00
2023-12-23T02:33:50.577Z,813.00
2023-12-23T02:34:50.612Z,811.00
2023-12-23T02:35:50.570Z,808.00
2023-12-23T02:36:50.580Z,806.00
2023-12-23T02:37:50.609Z,805.00
2023-12-23T02:38:50.565Z,800.00
2023-12-23T02:39:50.575Z,798.00
2023-12-23T02:40:50.613Z,795.00
2023-12-23T02:41:50.587Z,793.00
2023-12-23T02:42:50.959Z,794.00
2023-12-23T02:43:50.594Z,794.00
2023-12-23T02:44:50.569Z,792.00
2023-12-23T02:45:50.617Z,789.00
2023-12-23T02:46:50.625Z,789.00
2023-12-23T02:47:50.696Z,788.00
2023-12-23T02:48:50.686Z,790.00
2023-12-23T02:49:50.685Z,791.00
2023-12-23T02:50:50.688Z,789.00
2023-12-23T02:51:50.718Z,787.00
2023-12-23T02:52:51.165Z,786.00
2023-12-23T02:53:50.738Z,788.00
2023-12-23T02:54:50.753Z,790.00
2023-12-23T02:55:50.827Z,790.00
2023-12-23T02:56:50.796Z,788.00
2023-12-23T02:57:50.826Z,788.00
2023-12-23T02:58:52.402Z,786.00
2023-12-23T02:59:50.849Z,784.00
2023-12-23T03:00:50.891Z,786.00
2023-12-23T03:01:50.872Z,788.00
2023-12-23T03:02:51.104Z,788.00
2023-12-23T03:03:50.849Z,786.00
2023-12-23T03:04:50.898Z,785.00
2023-12-23T03:05:50.889Z,785.00
2023-12-23T03:06:50.855Z,785.00
2023-12-23T03:07:50.885Z,782.00
2023-12-23T03:08:50.849Z,780.00
2023-12-23T03:09:50.841Z,781.00
2023-12-23T03:10:50.898Z,781.00
2023-12-23T03:11:50.868Z,782.00
2023-12-23T03:12:51.125Z,781.00
2023-12-23T03:13:50.893Z,783.00
2023-12-23T03:14:50.851Z,780.00
2023-12-23T03:15:50.854Z,776.00
2023-12-23T03:16:50.955Z,775.00
2023-12-23T03:17:50.893Z,774.00
2023-12-23T03:18:50.920Z,771.00
2023-12-23T03:19:50.910Z,770.00
2023-12-23T03:20:50.875Z,771.00
2023-12-23T03:21:50.874Z,770.00
2023-12-23T03:22:51.093Z,770.00
2023-12-23T03:23:50.868Z,771.00
2023-12-23T03:24:50.880Z,771.00
2023-12-23T03:25:50.909Z,771.00
2023-12-23T03:26:50.868Z,770.00
2023-12-23T03:27:50.885Z,772.00
2023-12-23T03:28:50.897Z,775.00
2023-12-23T03:29:50.864Z,778.00
2023-12-23T03:30:50.979Z,779.00
2023-12-23T03:31:50.958Z,779.00
2023-12-23T03:32:51.110Z,779.00
2023-12-23T03:33:50.922Z,777.00
2023-12-23T03:34:50.899Z,777.00
2023-12-23T03:35:50.870Z,773.00
2023-12-23T03:36:51.166Z,770.00
2023-12-23T03:37:50.890Z,768.00
2023-12-23T03:38:50.875Z,765.00
2023-12-23T03:39:50.873Z,763.00
2023-12-23T03:40:50.885Z,761.00
2023-12-23T03:41:50.880Z,761.00
2023-12-23T03:42:51.308Z,762.00
2023-12-23T03:43:50.907Z,763.00
2023-12-23T03:44:50.887Z,765.00
2023-12-23T03:45:50.881Z,766.00
2023-12-23T03:46:50.899Z,761.00
2023-12-23T03:47:50.988Z,762.00
2023-12-23T03:48:50.921Z,760.00
2023-12-23T03:49:50.914Z,760.00
2023-12-23T03:50:50.893Z,759.00
2023-12-23T03:52:14.584Z,748.00
2023-12-23T03:53:14.627Z,751.00
2023-12-23T03:54:14.607Z,756.00
2023-12-23T03:55:14.637Z,756.00
2023-12-23T03:56:14.615Z,757.00
2023-12-23T03:57:14.614Z,755.00
2023-12-23T03:58:14.610Z,753.00
2023-12-23T03:59:14.623Z,750.00
2023-12-23T04:00:14.621Z,753.00
2023-12-23T04:01:14.607Z,756.00
2023-12-23T04:02:14.665Z,756.00
2023-12-23T04:03:14.644Z,755.00
2023-12-23T04:04:14.628Z,754.00
2023-12-23T04:05:14.673Z,751.00
2023-12-23T04:06:14.718Z,751.00
2023-12-23T04:07:14.616Z,751.00
2023-12-23T04:08:14.667Z,751.00
2023-12-23T04:09:14.615Z,750.00
2023-12-23T04:10:14.620Z,747.00
2023-12-23T04:11:14.705Z,747.00
2023-12-23T04:12:14.624Z,746.00
2023-12-23T04:13:14.620Z,744.00
2023-12-23T04:14:14.673Z,745.00
2023-12-23T04:15:14.633Z,748.00
2023-12-23T04:16:15.849Z,747.00
2023-12-23T04:17:14.677Z,746.00
2023-12-23T04:18:14.694Z,746.00
2023-12-23T04:19:14.708Z,747.00
2023-12-23T04:20:14.687Z,744.00
2023-12-23T04:21:14.631Z,744.00
2023-12-23T04:22:14.679Z,740.00
2023-12-23T04:23:14.680Z,742.00
2023-12-23T04:24:14.657Z,742.00
2023-12-23T04:25:14.643Z,743.00
2023-12-23T04:26:14.718Z,744.00
2023-12-23T04:27:14.644Z,747.00
2023-12-23T04:28:14.637Z,747.00
2023-12-23T04:29:14.711Z,744.00
2023-12-23T04:30:14.685Z,746.00
2023-12-23T04:31:14.757Z,746.00
2023-12-23T04:32:22.026Z,722.00
2023-12-23T04:33:22.092Z,733.00
2023-12-23T04:34:22.054Z,734.00
2023-12-23T04:35:22.128Z,736.00
2023-12-23T04:36:22.015Z,737.00
2023-12-23T04:37:22.030Z,738.00
2023-12-23T04:38:22.022Z,738.00
2023-12-23T04:39:22.026Z,736.00
2023-12-23T04:40:22.021Z,738.00
2023-12-23T04:41:22.160Z,737.00
2023-12-23T04:42:22.045Z,738.00
2023-12-23T04:43:22.021Z,739.00
2023-12-23T04:44:22.043Z,738.00
2023-12-23T04:45:22.024Z,735.00
2023-12-23T04:46:22.028Z,733.00
2023-12-23T04:47:22.105Z,730.00
2023-12-23T04:48:22.035Z,730.00
2023-12-23T04:49:22.033Z,730.00
2023-12-23T04:50:22.112Z,731.00
2023-12-23T04:51:22.027Z,734.00
2023-12-23T04:52:22.037Z,734.00
2023-12-23T04:53:22.072Z,734.00
2023-12-23T04:54:22.052Z,734.00
2023-12-23T04:55:22.039Z,735.00
2023-12-23T04:56:22.086Z,735.00
2023-12-23T04:57:22.048Z,734.00
2023-12-23T04:58:22.030Z,735.00
2023-12-23T04:59:22.109Z,733.00
2023-12-23T05:00:22.052Z,734.00
2023-12-23T05:01:22.085Z,732.00
2023-12-23T05:02:22.097Z,728.00
2023-12-23T05:03:22.118Z,729.00
2023-12-23T05:04:22.058Z,725.00
2023-12-23T05:05:22.133Z,723.00
2023-12-23T05:06:22.095Z,727.00
2023-12-23T05:07:22.052Z,732.00
2023-12-23T05:08:22.081Z,733.00
2023-12-23T05:09:22.067Z,732.00
2023-12-23T05:10:22.044Z,734.00
2023-12-23T05:11:22.073Z,735.00
2023-12-23T05:12:22.057Z,734.00
2023-12-23T05:13:22.060Z,733.00
2023-12-23T05:14:22.106Z,730.00
2023-12-23T05:15:22.085Z,730.00
2023-12-23T05:16:22.065Z,731.00
2023-12-23T05:17:22.237Z,733.00
2023-12-23T05:18:22.126Z,733.00
2023-12-23T05:19:22.082Z,733.00
2023-12-23T05:20:22.190Z,733.00
2023-12-23T05:21:22.178Z,732.00
2023-12-23T05:22:22.209Z,730.00
2023-12-23T05:23:22.271Z,731.00
2023-12-23T05:24:22.295Z,729.00
2023-12-23T05:25:22.350Z,729.00
2023-12-23T05:26:22.426Z,730.00
2023-12-23T05:27:22.439Z,731.00
2023-12-23T05:28:22.469Z,733.00
2023-12-23T05:29:22.528Z,732.00
2023-12-23T05:30:22.553Z,730.00
2023-12-23T05:31:22.570Z,730.00
2023-12-23T05:32:22.793Z,726.00
2023-12-23T05:33:22.763Z,727.00
2023-12-23T05:34:22.726Z,728.00
2023-12-23T05:35:22.858Z,728.00
2023-12-23T05:36:22.788Z,728.00
2023-12-23T05:37:22.825Z,729.00
2023-12-23T05:38:22.897Z,728.00
2023-12-23T05:39:22.907Z,729.00
2023-12-23T05:40:22.969Z,729.00
2023-12-23T05:41:23.036Z,731.00
2023-12-23T05:42:23.069Z,731.00
2023-12-23T05:43:23.087Z,731.00
2023-12-23T05:44:23.147Z,728.00
2023-12-23T05:45:23.184Z,726.00
2023-12-23T05:46:23.262Z,728.00
2023-12-23T05:47:23.458Z,728.00
2023-12-23T05:48:23.484Z,726.00
2023-12-23T05:49:24.602Z,724.00
2023-12-23T05:50:23.480Z,724.00
2023-12-23T05:51:23.460Z,722.00
2023-12-23T05:52:23.515Z,722.00
2023-12-23T05:53:23.624Z,722.00
2023-12-23T05:54:23.632Z,721.00
2023-12-23T05:55:23.697Z,720.00
2023-12-23T05:56:23.741Z,720.00
2023-12-23T05:57:23.768Z,720.00
2023-12-23T05:58:23.802Z,720.00
2023-12-23T05:59:23.893Z,721.00
2023-12-23T06:00:23.887Z,719.00
2023-12-23T06:01:23.952Z,720.00
2023-12-23T06:02:24.044Z,718.00
2023-12-23T06:03:24.107Z,720.00
2023-12-23T06:04:24.084Z,722.00
2023-12-23T06:05:24.223Z,721.00
2023-12-23T06:06:24.183Z,720.00
2023-12-23T06:07:24.238Z,720.00
2023-12-23T06:08:24.290Z,721.00
2023-12-23T06:09:24.351Z,720.00
2023-12-23T06:10:24.365Z,718.00
2023-12-23T06:11:24.546Z,720.00
2023-12-23T06:12:24.495Z,720.00
2023-12-23T06:13:24.554Z,719.00
2023-12-23T06:14:24.628Z,718.00
2023-12-23T06:15:24.599Z,717.00
2023-12-23T06:16:24.658Z,718.00
2023-12-23T06:17:24.801Z,721.00
2023-12-23T06:18:24.809Z,723.00
2023-12-23T06:19:24.921Z,720.00
2023-12-23T06:20:24.908Z,719.00
2023-12-23T06:21:24.889Z,719.00
2023-12-23T06:22:24.954Z,717.00
2023-12-23T06:23:25.067Z,720.00
2023-12-23T06:24:25.049Z,719.00
2023-12-23T06:25:25.078Z,717.00
2023-12-23T06:26:25.150Z,714.00
2023-12-23T06:27:25.186Z,717.00
2023-12-23T06:28:25.232Z,717.00
2023-12-23T06:29:25.303Z,716.00
2023-12-23T06:30:25.418Z,712.00
2023-12-23T06:31:25.440Z,708.00
2023-12-23T06:32:25.615Z,704.00
2023-12-23T06:33:25.637Z,702.00
2023-12-23T06:34:25.628Z,702.00
2023-12-23T06:35:25.784Z,701.00
2023-12-23T06:36:25.745Z,701.00
2023-12-23T06:37:25.821Z,703.00
2023-12-23T06:38:25.937Z,703.00
2023-12-23T06:39:25.945Z,705.00
2023-12-23T06:40:26.024Z,705.00
2023-12-23T06:41:26.135Z,704.00
2023-12-23T06:42:26.132Z,702.00
2023-12-23T06:43:45.284Z,702.00
2023-12-23T06:44:27.216Z,703.00
2023-12-23T06:45:26.186Z,702.00
2023-12-23T06:46:26.194Z,703.00
2023-12-23T06:47:26.245Z,704.00
2023-12-23T06:48:27.164Z,705.00
2023-12-23T06:49:26.297Z,705.00
2023-12-23T06:50:26.262Z,706.00
2023-12-23T06:51:26.221Z,706.00
2023-12-23T06:52:26.194Z,705.00
2023-12-23T06:53:26.238Z,707.00
2023-12-23T06:54:26.215Z,708.00
2023-12-23T06:55:26.200Z,708.00
2023-12-23T06:56:26.249Z,708.00
2023-12-23T06:57:26.253Z,709.00
2023-12-23T06:58:27.216Z,709.00
2023-12-23T06:59:26.387Z,710.00
2023-12-23T07:00:26.394Z,711.00
2023-12-23T07:01:26.448Z,707.00
2023-12-23T07:02:26.510Z,708.00
2023-12-23T07:03:26.593Z,707.00
2023-12-23T07:04:26.605Z,707.00
2023-12-23T07:05:26.730Z,706.00
2023-12-23T07:06:26.704Z,707.00
2023-12-23T07:07:26.767Z,706.00
2023-12-23T07:08:26.807Z,706.00
2023-12-23T07:09:26.869Z,704.00
2023-12-23T07:10:26.904Z,703.00
2023-12-23T07:11:26.969Z,704.00
2023-12-23T07:12:27.016Z,704.00
2023-12-23T07:13:27.074Z,703.00
2023-12-23T07:14:27.129Z,705.00
2023-12-23T07:15:27.128Z,707.00
2023-12-23T07:16:27.188Z,708.00
2023-12-23T07:17:38.090Z,710.00
2023-12-23T07:18:28.271Z,710.00
2023-12-23T07:19:27.344Z,707.00
2023-12-23T07:20:27.326Z,706.00
2023-12-23T07:21:27.239Z,705.00
2023-12-23T07:22:27.247Z,704.00
2023-12-23T07:23:27.291Z,703.00
2023-12-23T07:24:27.246Z,705.00
2023-12-23T07:25:27.252Z,704.00
2023-12-23T07:26:27.380Z,703.00
2023-12-23T07:27:27.241Z,701.00
2023-12-23T07:28:27.239Z,699.00
2023-12-23T07:29:27.305Z,699.00
2023-12-23T07:30:27.297Z,698.00
2023-12-23T07:31:27.250Z,695.00
2023-12-23T07:32:27.516Z,693.00
2023-12-23T07:33:27.330Z,690.00
2023-12-23T07:34:27.256Z,688.00
2023-12-23T07:35:27.299Z,688.00
2023-12-23T07:36:27.251Z,686.00
2023-12-23T07:37:27.260Z,683.00
2023-12-23T07:38:27.292Z,683.00
2023-12-23T07:39:27.266Z,680.00
2023-12-23T07:40:30.631Z,681.00
2023-12-23T07:41:27.320Z,685.00
2023-12-23T07:42:27.274Z,682.00
2023-12-23T07:43:27.272Z,684.00
2023-12-23T07:44:27.288Z,683.00
2023-12-23T07:45:27.268Z,685.00
2023-12-23T07:46:27.282Z,687.00
2023-12-23T07:47:27.330Z,686.00
2023-12-23T07:48:27.349Z,685.00
2023-12-23T07:49:27.277Z,685.00
2023-12-23T07:50:27.294Z,685.00
2023-12-23T07:51:27.279Z,685.00
2023-12-23T07:52:27.279Z,687.00
2023-12-23T07:53:27.375Z,688.00
2023-12-23T07:54:27.356Z,691.00
2023-12-23T07:55:27.283Z,691.00
2023-12-23T07:56:27.318Z,688.00
2023-12-23T07:57:27.289Z,684.00
2023-12-23T07:58:27.278Z,683.00
2023-12-23T07:59:27.303Z,682.00
2023-12-23T08:00:27.300Z,680.00
2023-12-23T08:01:27.303Z,680.00
2023-12-23T08:02:27.397Z,678.00
2023-12-23T08:03:27.308Z,677.00
2023-12-23T08:04:27.344Z,674.00
2023-12-23T08:05:27.506Z,674.00
2023-12-23T08:06:27.568Z,674.00
2023-12-23T08:07:27.544Z,675.00
2023-12-23T08:08:28.275Z,676.00
2023-12-23T08:09:27.636Z,674.00
2023-12-23T08:10:27.690Z,674.00
2023-12-23T08:11:27.927Z,674.00
2023-12-23T08:12:27.822Z,674.00
2023-12-23T08:13:27.874Z,672.00
2023-12-23T08:14:27.995Z,672.00
2023-12-23T08:15:27.993Z,673.00
2023-12-23T08:16:28.058Z,671.00
2023-12-23T08:17:28.184Z,670.00
2023-12-23T08:18:28.299Z,667.00
2023-12-23T08:19:28.300Z,668.00
2023-12-23T08:20:28.315Z,671.00
2023-12-23T08:21:28.308Z,670.00
2023-12-23T08:22:28.372Z,667.00
2023-12-23T08:23:28.494Z,668.00
2023-12-23T08:24:28.470Z,670.00
2023-12-23T08:25:28.529Z,668.00
2023-12-23T08:26:28.660Z,668.00
2023-12-23T08:27:28.643Z,667.00
2023-12-23T08:28:28.691Z,670.00
2023-12-23T08:29:28.840Z,669.00
2023-12-23T08:30:28.826Z,668.00
2023-12-23T08:31:28.864Z,668.00
2023-12-23T08:32:29.049Z,668.00
2023-12-23T08:33:29.044Z,668.00
2023-12-23T08:34:29.034Z,669.00
2023-12-23T08:35:29.171Z,667.00
2023-12-23T08:36:29.184Z,664.00
2023-12-23T08:37:29.227Z,665.00
2023-12-23T08:38:29.396Z,663.00
2023-12-23T08:39:29.325Z,664.00
2023-12-23T08:40:29.390Z,664.00
2023-12-23T08:41:29.490Z,666.00
2023-12-23T08:42:29.512Z,667.00
2023-12-23T08:43:29.550Z,664.00
2023-12-23T08:44:29.647Z,666.00
2023-12-23T08:45:29.656Z,666.00
2023-12-23T08:46:29.705Z,669.00
2023-12-23T08:47:29.842Z,668.00
2023-12-23T08:48:29.969Z,668.00
2023-12-23T08:49:29.924Z,669.00
2023-12-23T08:50:30.147Z,670.00
2023-12-23T08:51:29.986Z,669.00
2023-12-23T08:52:30.029Z,666.00
2023-12-23T08:53:30.131Z,664.00
2023-12-23T08:54:30.143Z,665.00
2023-12-23T08:55:30.205Z,665.00
2023-12-23T08:56:30.298Z,664.00
2023-12-23T08:57:30.340Z,659.00
2023-12-23T08:58:30.382Z,657.00
2023-12-23T08:59:30.475Z,656.00
2023-12-23T09:00:30.499Z,656.00
2023-12-23T09:01:30.570Z,657.00
2023-12-23T09:02:30.676Z,656.00
2023-12-23T09:03:30.692Z,655.00
2023-12-23T09:04:30.722Z,653.00
2023-12-23T09:05:31.045Z,654.00
2023-12-23T09:06:30.844Z,654.00
2023-12-23T09:07:33.167Z,655.00
2023-12-23T09:08:30.986Z,653.00
2023-12-23T09:09:30.899Z,654.00
2023-12-23T09:10:30.901Z,653.00
2023-12-23T09:11:30.938Z,652.00
2023-12-23T09:12:30.911Z,650.00
2023-12-23T09:13:30.906Z,649.00
2023-12-23T09:14:31.031Z,649.00
2023-12-23T09:15:30.901Z,648.00
2023-12-23T09:16:30.911Z,650.00
2023-12-23T09:17:34.347Z,648.00
2023-12-23T09:18:31.044Z,650.00
2023-12-23T09:19:30.951Z,652.00
2023-12-23T09:20:30.956Z,652.00
2023-12-23T09:21:30.932Z,654.00
2023-12-23T09:22:30.943Z,652.00
2023-12-23T09:23:31.010Z,651.00
2023-12-23T09:24:30.913Z,651.00
2023-12-23T09:25:30.926Z,649.00
2023-12-23T09:26:30.983Z,648.00
2023-12-23T09:27:30.934Z,648.00
2023-12-23T09:28:30.917Z,649.00
2023-12-23T09:29:30.944Z,648.00
2023-12-23T09:30:30.955Z,646.00
2023-12-23T09:31:30.938Z,645.00
2023-12-23T09:32:30.992Z,644.00
2023-12-23T09:33:31.059Z,642.00
2023-12-23T09:34:30.952Z,642.00
2023-12-23T09:35:30.993Z,640.00
2023-12-23T09:36:30.944Z,640.00
2023-12-23T09:37:30.943Z,640.00
2023-12-23T09:38:31.041Z,642.00
2023-12-23T09:39:30.958Z,646.00
2023-12-23T09:40:30.953Z,647.00
2023-12-23T09:41:31.018Z,645.00
2023-12-23T09:42:30.959Z,641.00
2023-12-23T09:43:30.947Z,642.00
2023-12-23T09:44:31.009Z,641.00
2023-12-23T09:45:30.971Z,643.00
2023-12-23T09:46:30.970Z,641.00
2023-12-23T09:47:31.091Z,642.00
2023-12-23T09:48:31.072Z,641.00
2023-12-23T09:49:30.997Z,643.00
2023-12-23T09:50:31.016Z,642.00
2023-12-23T09:51:31.044Z,643.00
2023-12-23T09:52:31.092Z,641.00
2023-12-23T09:53:31.206Z,642.00
2023-12-23T09:54:31.204Z,641.00
2023-12-23T09:55:31.259Z,644.00
2023-12-23T09:56:31.365Z,644.00
2023-12-23T09:57:31.385Z,646.00
2023-12-23T09:58:31.438Z,649.00
2023-12-23T09:59:31.510Z,648.00
2023-12-23T10:00:31.578Z,646.00
2023-12-23T10:01:31.639Z,643.00
2023-12-23T10:02:31.717Z,639.00
2023-12-23T10:03:31.749Z,637.00
2023-12-23T10:04:31.814Z,637.00
2023-12-23T10:05:31.982Z,633.00
2023-12-23T10:06:32.164Z,633.00
2023-12-23T10:07:32.015Z,632.00
2023-12-23T10:08:32.127Z,630.00
2023-12-23T10:09:32.114Z,630.00
2023-12-23T10:10:32.186Z,629.00
2023-12-23T10:11:32.264Z,627.00
2023-12-23T10:12:32.296Z,626.00
2023-12-23T10:13:32.360Z,627.00
2023-12-23T10:14:32.473Z,625.00
2023-12-23T10:15:32.494Z,623.00
2023-12-23T10:16:32.544Z,622.00
2023-12-23T10:17:32.759Z,622.00
2023-12-23T10:18:32.850Z,621.00
2023-12-23T10:19:32.713Z,624.00
2023-12-23T10:20:32.818Z,625.00
2023-12-23T10:21:32.825Z,624.00
2023-12-23T10:22:32.901Z,626.00
2023-12-23T10:23:32.983Z,631.00
2023-12-23T10:24:33.011Z,631.00
2023-12-23T10:25:33.099Z,630.00
2023-12-23T10:26:33.135Z,628.00
2023-12-23T10:27:33.209Z,626.00
2023-12-23T10:28:33.291Z,626.00
2023-12-23T10:29:33.369Z,626.00
2023-12-23T10:30:33.413Z,629.00
2023-12-23T10:31:33.449Z,629.00
2023-12-23T10:32:33.558Z,631.00
2023-12-23T10:33:33.617Z,631.00
2023-12-23T10:34:33.632Z,634.00
2023-12-23T10:35:33.776Z,634.00
2023-12-23T10:36:33.761Z,631.00
2023-12-23T10:37:33.820Z,631.00
2023-12-23T10:38:33.932Z,631.00
2023-12-23T10:39:33.940Z,630.00
2023-12-23T10:40:33.978Z,630.00
2023-12-23T10:41:34.041Z,632.00
2023-12-23T10:42:34.105Z,630.00
2023-12-23T10:43:34.193Z,627.00
2023-12-23T10:44:34.236Z,626.00
2023-12-23T10:45:37.166Z,623.00
2023-12-23T10:46:34.283Z,621.00
2023-12-23T10:47:34.580Z,621.00
2023-12-23T10:48:35.376Z,622.00
2023-12-23T10:49:34.304Z,619.00
2023-12-23T10:50:34.342Z,618.00
2023-12-23T10:51:34.290Z,619.00
2023-12-23T10:52:34.315Z,620.00
2023-12-23T10:53:34.371Z,618.00
2023-12-23T10:54:34.293Z,617.00
2023-12-23T10:55:34.287Z,616.00
2023-12-23T10:56:34.348Z,618.00
2023-12-23T10:57:34.313Z,619.00
2023-12-23T10:58:34.298Z,619.00
2023-12-23T10:59:34.316Z,617.00
2023-12-23T11:00:34.320Z,615.00
2023-12-23T11:01:34.342Z,615.00
2023-12-23T11:02:34.312Z,614.00
2023-12-23T11:03:34.322Z,614.00
2023-12-23T11:04:34.307Z,614.00
2023-12-23T11:05:34.417Z,614.00
2023-12-23T11:06:34.355Z,614.00
2023-12-23T11:07:34.326Z,614.00
2023-12-23T11:08:34.438Z,615.00
2023-12-23T11:09:34.311Z,614.00
2023-12-23T11:10:34.325Z,613.00
2023-12-23T11:11:34.356Z,614.00
2023-12-23T11:12:34.444Z,612.00
2023-12-23T11:13:34.487Z,612.00
2023-12-23T11:14:34.540Z,612.00
2023-12-23T11:15:34.581Z,612.00
2023-12-23T11:16:34.639Z,614.00
2023-12-23T11:17:34.736Z,612.00
2023-12-23T11:18:34.893Z,612.00
2023-12-23T11:19:34.813Z,610.00
2023-12-23T11:20:34.910Z,610.00
2023-12-23T11:21:34.933Z,610.00
2023-12-23T11:22:35.013Z,612.00
2023-12-23T11:23:35.311Z,615.00
2023-12-23T11:24:35.098Z,618.00
2023-12-23T11:25:35.155Z,618.00
2023-12-23T11:26:35.279Z,619.00
2023-12-23T11:27:35.275Z,618.00
2023-12-23T11:28:35.378Z,616.00
2023-12-23T11:29:35.388Z,616.00
2023-12-23T11:30:35.458Z,614.00
2023-12-23T11:31:35.535Z,613.00
2023-12-23T11:32:35.649Z,613.00
2023-12-23T11:33:35.721Z,611.00
2023-12-23T11:34:35.677Z,612.00
2023-12-23T11:35:35.747Z,611.00
2023-12-23T11:36:35.788Z,611.00
2023-12-23T11:37:35.844Z,610.00
2023-12-23T11:38:35.931Z,610.00
2023-12-23T11:39:35.957Z,609.00
2023-12-23T11:40:36.011Z,609.00
2023-12-23T11:41:36.846Z,609.00
2023-12-23T11:42:36.135Z,610.00
2023-12-23T11:43:36.188Z,611.00
2023-12-23T11:44:36.286Z,612.00
2023-12-23T11:45:36.305Z,610.00
2023-12-23T11:46:36.337Z,610.00
2023-12-23T11:47:36.439Z,608.00
2023-12-23T11:48:36.535Z,607.00
2023-12-23T11:49:36.502Z,607.00
2023-12-23T11:50:36.609Z,605.00
2023-12-23T11:51:36.610Z,605.00
2023-12-23T11:52:36.733Z,602.00
2023-12-23T11:53:36.842Z,602.00
2023-12-23T11:54:36.801Z,604.00
2023-12-23T11:55:36.839Z,603.00
2023-12-23T11:56:37.005Z,602.00
2023-12-23T11:57:37.099Z,600.00
2023-12-23T11:58:37.022Z,597.00
2023-12-23T11:59:37.817Z,595.00
2023-12-23T12:00:37.141Z,595.00
2023-12-23T12:01:37.216Z,596.00
2023-12-23T12:02:37.253Z,595.00
2023-12-23T12:03:37.384Z,595.00
2023-12-23T12:04:37.397Z,595.00
2023-12-23T12:05:37.491Z,595.00
2023-12-23T12:06:37.521Z,594.00
2023-12-23T12:07:37.568Z,594.00
2023-12-23T12:08:37.634Z,594.00
2023-12-23T12:09:37.684Z,599.00
2023-12-23T12:10:37.729Z,599.00
2023-12-23T12:11:37.899Z,602.00
2023-12-23T12:12:37.847Z,604.00
2023-12-23T12:13:37.909Z,604.00
2023-12-23T12:14:37.963Z,604.00
2023-12-23T12:15:38.017Z,602.00
2023-12-23T12:16:38.106Z,600.00
2023-12-23T12:17:38.238Z,596.00
2023-12-23T12:18:38.217Z,593.00
2023-12-23T12:19:38.217Z,593.00
2023-12-23T12:20:38.269Z,593.00
2023-12-23T12:21:38.333Z,592.00
2023-12-23T12:22:38.394Z,592.00
2023-12-23T12:23:38.557Z,591.00
2023-12-23T12:24:38.528Z,592.00
2023-12-23T12:25:38.549Z,593.00
2023-12-23T12:26:38.592Z,592.00
2023-12-23T12:27:38.652Z,592.00
2023-12-23T12:28:38.706Z,592.00
2023-12-23T12:29:38.829Z,592.00